Time;durP1;ratioP1;P1;durP2;ratioP2;P2;SDS_P1;SDS_P2;PMS_P1;PMS_P2;Temp;Humidity;BMP_temperature;BMP_pressure;BME280_temperature;BME280_humidity;BME280_pressure;Samples;Min_cycle;Max_cycle;Signal;HPM_P1;HPM_P2
2022/01/19 00:01:17;;;;;;;23.48;10.77;;;4.90;99.90;;;;;;4930709;28;20060;-66
2022/01/19 00:03:43;;;;;;;25.20;9.73;;;4.90;99.90;;;;;;4912953;28;20763;-66
2022/01/19 00:06:09;;;;;;;25.57;11.33;;;4.90;99.90;;;;;;4914738;29;20051;-66
2022/01/19 00:08:35;;;;;;;23.05;11.02;;;4.90;99.90;;;;;;4928736;28;20131;-66
2022/01/19 00:11:01;;;;;;;26.73;12.43;;;4.90;99.90;;;;;;4934861;28;20286;-66
2022/01/19 00:13:27;;;;;;;27.45;11.65;;;4.90;99.90;;;;;;4929730;28;20043;-66
2022/01/19 00:15:53;;;;;;;26.10;11.90;;;4.90;99.90;;;;;;4932397;28;20590;-66
2022/01/19 00:18:22;;;;;;;32.40;12.43;;;4.90;99.90;;;;;;4919493;29;20313;-66
2022/01/19 00:20:48;;;;;;;27.20;12.27;;;4.90;99.90;;;;;;4929557;28;20050;-66
2022/01/19 00:23:18;;;;;;;21.00;9.27;;;4.90;99.90;;;;;;4939251;28;20038;-67
2022/01/19 00:25:47;;;;;;;30.67;9.85;;;4.90;99.90;;;;;;4926578;28;20477;-67
2022/01/19 00:28:13;;;;;;;29.90;10.82;;;4.90;99.90;;;;;;4931008;28;20400;-67
2022/01/19 00:30:40;;;;;;;31.47;9.77;;;4.90;99.90;;;;;;4919315;29;20043;-66
2022/01/19 00:33:05;;;;;;;22.83;10.10;;;4.80;99.90;;;;;;4929595;28;20064;-66
2022/01/19 00:35:31;;;;;;;28.73;8.47;;;4.80;99.90;;;;;;4925671;29;20039;-68
2022/01/19 00:37:57;;;;;;;26.45;9.25;;;4.80;99.90;;;;;;4926268;28;20042;-69
2022/01/19 00:40:23;;;;;;;28.57;10.20;;;4.80;99.90;;;;;;4926285;28;20138;-67
2022/01/19 00:42:49;;;;;;;27.70;11.83;;;4.80;99.90;;;;;;4912822;28;20047;-67
2022/01/19 00:45:15;;;;;;;29.25;14.45;;;4.80;99.90;;;;;;4937101;28;20050;-67
2022/01/19 00:47:42;;;;;;;31.45;13.15;;;4.80;99.90;;;;;;4928813;28;20121;-67
2022/01/19 00:50:11;;;;;;;28.95;11.75;;;4.80;99.90;;;;;;4910129;29;20073;-67
2022/01/19 00:52:37;;;;;;;37.88;13.90;;;4.80;99.90;;;;;;4912112;28;20051;-67
2022/01/19 00:55:07;;;;;;;29.57;11.90;;;4.80;99.90;;;;;;4916469;28;21117;-67
2022/01/19 00:57:33;;;;;;;44.67;14.45;;;4.80;99.90;;;;;;4935756;28;20782;-67
2022/01/19 00:59:59;;;;;;;39.27;16.07;;;4.90;99.90;;;;;;4921283;28;20058;-68
2022/01/19 01:02:25;;;;;;;29.70;11.73;;;4.80;99.90;;;;;;4927846;28;20039;-67
2022/01/19 01:04:51;;;;;;;30.27;13.02;;;4.80;99.90;;;;;;4939908;28;20043;-67
2022/01/19 01:07:17;;;;;;;29.13;13.68;;;4.80;99.90;;;;;;4940690;28;20067;-67
2022/01/19 01:09:42;;;;;;;38.88;13.73;;;4.80;99.90;;;;;;4941888;28;20070;-68
2022/01/19 01:12:14;;;;;;;39.77;14.23;;;4.80;99.90;;;;;;4924134;29;20042;-67
2022/01/19 01:20:12;;;;;;;35.10;13.25;;;4.80;99.90;;;;;;4941353;28;20047;-67
2022/01/19 01:22:38;;;;;;;35.60;13.32;;;4.80;99.90;;;;;;4941706;28;20382;-67
2022/01/19 01:25:05;;;;;;;38.47;13.25;;;4.80;99.90;;;;;;4934244;28;20432;-67
2022/01/19 01:27:31;;;;;;;33.38;11.43;;;4.80;99.90;;;;;;4941456;28;20055;-67
2022/01/19 01:29:56;;;;;;;32.73;11.93;;;4.80;99.90;;;;;;4939509;28;20051;-67
2022/01/19 01:32:22;;;;;;;35.70;12.63;;;4.70;99.90;;;;;;4920214;28;20043;-67
2022/01/19 01:34:49;;;;;;;36.80;14.20;;;4.70;99.90;;;;;;4929109;28;20116;-67
2022/01/19 01:37:14;;;;;;;41.17;16.08;;;4.70;99.90;;;;;;4921799;29;20044;-67
2022/01/19 01:39:40;;;;;;;42.27;14.90;;;4.60;99.90;;;;;;4927779;29;20057;-67
2022/01/19 01:42:14;;;;;;;42.73;17.63;;;4.60;99.90;;;;;;4925032;28;20382;-67
2022/01/19 01:44:43;;;;;;;41.38;15.77;;;4.60;99.90;;;;;;4921215;29;20048;-67
2022/01/19 01:47:10;;;;;;;52.03;18.38;;;4.60;99.90;;;;;;4940832;28;20066;-68
2022/01/19 01:53:25;;;;;;;;;;;4.60;99.90;;;;;;4938795;28;20162;-68
2022/01/19 01:55:18;;;;;;;41.20;16.27;;;4.60;99.90;;;;;;4942844;28;20084;-68
2022/01/19 01:57:44;;;;;;;43.17;16.77;;;4.50;99.90;;;;;;4936545;28;20101;-67
2022/01/19 02:00:17;;;;;;;39.77;14.13;;;4.60;99.90;;;;;;4940302;28;20027;-67
2022/01/19 02:02:43;;;;;;;40.78;15.45;;;4.60;99.90;;;;;;4943096;28;20508;-67
2022/01/19 02:05:10;;;;;;;35.58;15.30;;;4.60;99.90;;;;;;4927645;29;20126;-67
2022/01/19 02:07:44;;;;;;;46.97;14.98;;;4.60;99.90;;;;;;4943339;28;20416;-67
2022/01/19 02:11:01;;;;;;;42.25;15.85;;;4.60;99.90;;;;;;4943345;28;20046;-67
2022/01/19 02:24:12;;;;;;;47.28;15.98;;;4.60;99.90;;;;;;4939516;28;20102;-67
2022/01/19 02:29:54;;;;;;;45.85;17.05;;;4.60;99.90;;;;;;4942819;28;20729;-67
2022/01/19 02:40:27;;;;;;;54.67;18.27;;;4.70;99.90;;;;;;4935514;28;20043;-67
2022/01/19 02:50:36;;;;;;;51.47;20.33;;;4.70;99.90;;;;;;4934408;28;20054;-68
2022/01/19 02:53:02;;;;;;;52.45;20.02;;;4.80;99.90;;;;;;4912146;29;20480;-68
2022/01/19 02:55:29;;;;;;;58.38;20.17;;;4.80;99.90;;;;;;4946509;29;20046;-69
2022/01/19 02:57:55;;;;;;;61.33;22.15;;;4.80;99.90;;;;;;4942186;28;20094;-68
2022/01/19 03:08:50;;;;;;;52.90;19.70;;;4.80;99.90;;;;;;4940853;28;20071;-68
2022/01/19 03:11:18;;;;;;;61.78;19.25;;;4.80;99.90;;;;;;4945631;29;20050;-68
2022/01/19 03:13:45;;;;;;;68.88;20.38;;;4.70;99.90;;;;;;4945110;28;20035;-68
2022/01/19 03:16:11;;;;;;;64.53;22.60;;;4.70;99.90;;;;;;4925702;29;20043;-68
2022/01/19 03:18:37;;;;;;;63.30;22.10;;;4.70;99.90;;;;;;4924281;29;20043;-68
2022/01/19 03:21:03;;;;;;;62.10;20.97;;;4.70;99.90;;;;;;4934322;28;20604;-68
2022/01/19 03:23:29;;;;;;;69.13;22.15;;;4.70;99.90;;;;;;4920874;28;20067;-68
2022/01/19 03:25:56;;;;;;;68.67;19.07;;;4.60;99.90;;;;;;4927209;29;20279;-68
2022/01/19 03:28:22;;;;;;;55.20;17.92;;;4.70;99.90;;;;;;4925775;29;20035;-69
2022/01/19 03:30:48;;;;;;;57.60;17.23;;;4.70;99.90;;;;;;4948427;28;20039;-69
2022/01/19 03:33:17;;;;;;;48.90;16.95;;;4.60;99.90;;;;;;4943942;28;20035;-68
2022/01/19 03:35:43;;;;;;;49.63;15.32;;;4.50;99.90;;;;;;4940914;28;20061;-68
2022/01/19 03:38:09;;;;;;;;;;;4.50;99.90;;;;;;4940377;28;20133;-68
2022/01/19 03:40:36;;;;;;;42.88;14.20;;;4.40;99.90;;;;;;4913248;29;19927;-68
2022/01/19 03:43:05;;;;;;;45.90;14.32;;;4.40;99.90;;;;;;4943589;28;20126;-69
2022/01/19 03:45:32;;;;;;;49.55;14.25;;;4.40;99.90;;;;;;4935941;28;20519;-68
2022/01/19 03:48:27;;;;;;;56.65;16.05;;;4.30;99.90;;;;;;4925150;28;20753;-68
2022/01/19 03:50:53;;;;;;;39.60;14.60;;;4.30;99.90;;;;;;4942409;28;20050;-68
2022/01/19 03:53:18;;;;;;;41.08;14.63;;;4.20;99.90;;;;;;4943039;28;20357;-68
2022/01/19 03:55:44;;;;;;;45.93;14.23;;;4.20;99.90;;;;;;4948292;28;20050;-68
2022/01/19 03:58:10;;;;;;;47.23;14.00;;;4.20;99.90;;;;;;4929595;29;20415;-68
2022/01/19 04:00:41;;;;;;;48.10;16.40;;;4.20;99.90;;;;;;4928430;29;20330;-68
2022/01/19 04:03:14;;;;;;;48.13;14.55;;;4.10;99.90;;;;;;4944298;28;20043;-68
2022/01/19 04:08:14;;;;;;;53.63;14.80;;;4.10;99.90;;;;;;4934598;28;20051;-69
2022/01/19 04:10:40;;;;;;;47.67;14.73;;;4.10;99.90;;;;;;4942870;28;20102;-68
2022/01/19 04:13:24;;;;;;;50.10;17.00;;;4.10;99.90;;;;;;4944238;28;20066;-68
2022/01/19 04:15:51;;;;;;;48.65;14.75;;;4.10;99.90;;;;;;4925394;29;20062;-68
2022/01/19 04:18:17;;;;;;;;;;;4.10;99.90;;;;;;4937558;28;20071;-68
2022/01/19 04:20:44;;;;;;;51.78;14.63;;;4.10;99.90;;;;;;4936026;28;19958;-68
2022/01/19 04:23:09;;;;;;;59.72;14.73;;;4.10;99.90;;;;;;4933740;28;20054;-68
2022/01/19 04:25:35;;;;;;;48.67;15.87;;;4.10;99.90;;;;;;4942377;28;20484;-68
2022/01/19 04:28:07;;;;;;;47.90;15.03;;;4.00;99.90;;;;;;4937851;28;20125;-68
2022/01/19 04:30:33;;;;;;;46.45;14.20;;;4.00;99.90;;;;;;4925758;28;20328;-69
2022/01/19 04:35:28;;;;;;;46.23;15.60;;;4.10;99.90;;;;;;4928492;29;20054;-68
2022/01/19 05:04:50;;;;;;;45.33;14.27;;;4.00;99.90;;;;;;4938156;28;20047;-68
2022/01/19 05:07:26;;;;;;;47.13;13.27;;;4.00;99.90;;;;;;4939854;28;20039;-69
2022/01/19 05:13:23;;;;;;;32.63;12.90;;;4.00;99.90;;;;;;4946607;28;20452;-68
2022/01/19 05:15:30;;;;;;;46.75;14.18;;;4.00;99.90;;;;;;4943753;28;20043;-68
2022/01/19 05:17:55;;;;;;;35.17;14.03;;;4.00;99.90;;;;;;4943984;28;20469;-68
2022/01/19 05:20:21;;;;;;;36.63;14.50;;;4.00;99.90;;;;;;4945197;28;20071;-68
2022/01/19 05:22:47;;;;;;;41.13;14.40;;;3.90;99.90;;;;;;4943011;28;20743;-68
2022/01/19 05:25:12;;;;;;;35.80;13.40;;;3.90;99.90;;;;;;4924204;29;20492;-68
2022/01/19 05:27:38;;;;;;;48.07;14.30;;;3.90;99.90;;;;;;4928996;29;20484;-68
2022/01/19 05:30:04;;;;;;;41.97;13.43;;;3.90;99.90;;;;;;4948524;28;20500;-68
2022/01/19 05:32:30;;;;;;;46.33;14.07;;;3.90;99.90;;;;;;4926450;29;20657;-68
2022/01/19 05:34:55;;;;;;;33.97;13.00;;;3.90;99.90;;;;;;4941435;28;20110;-68
2022/01/19 05:37:21;;;;;;;37.03;14.97;;;3.90;99.90;;;;;;4943561;28;20123;-69
2022/01/19 05:39:47;;;;;;;36.07;13.70;;;4.00;99.90;;;;;;4946259;28;20216;-68
2022/01/19 05:42:15;;;;;;;40.87;14.13;;;4.00;99.90;;;;;;4924026;28;20674;-68
2022/01/19 05:44:43;;;;;;;46.42;13.80;;;4.00;99.90;;;;;;4925100;29;20055;-68
2022/01/19 05:47:10;;;;;;;37.28;13.75;;;3.90;99.90;;;;;;4945324;28;20292;-68
2022/01/19 05:49:36;;;;;;;33.03;13.88;;;4.00;99.90;;;;;;4944642;28;20043;-68
2022/01/19 05:52:02;;;;;;;36.15;14.98;;;4.00;99.90;;;;;;4925795;28;20467;-68
2022/01/19 05:54:28;;;;;;;40.70;14.57;;;4.00;99.90;;;;;;4913309;29;20285;-68
2022/01/19 05:56:53;;;;;;;37.03;14.83;;;4.00;99.90;;;;;;4941393;28;20076;-68
2022/01/19 05:59:21;;;;;;;39.67;14.20;;;4.00;99.90;;;;;;4929933;28;20050;-68
2022/01/19 06:01:50;;;;;;;45.20;14.77;;;4.00;99.90;;;;;;4944864;28;20054;-68
2022/01/19 06:04:16;;;;;;;41.80;13.77;;;4.00;99.90;;;;;;4946083;28;20481;-68
2022/01/19 06:06:43;;;;;;;35.65;15.30;;;4.00;99.90;;;;;;4942095;28;20051;-68
2022/01/19 06:09:21;;;;;;;37.77;14.47;;;4.00;99.90;;;;;;4942530;28;20519;-68
2022/01/19 06:11:47;;;;;;;42.15;15.43;;;4.00;99.90;;;;;;4936324;28;20066;-68
2022/01/19 06:14:12;;;;;;;35.42;14.25;;;4.00;99.90;;;;;;4944843;28;20512;-68
2022/01/19 06:16:39;;;;;;;35.37;15.03;;;4.10;99.90;;;;;;4943159;28;20091;-69
2022/01/19 06:19:05;;;;;;;34.25;13.30;;;4.10;99.90;;;;;;4926699;29;20039;-69
2022/01/19 06:21:31;;;;;;;33.33;13.87;;;4.10;99.90;;;;;;4937860;28;20054;-69
2022/01/19 06:23:57;;;;;;;36.93;13.33;;;4.10;99.90;;;;;;4944279;28;20126;-69
2022/01/19 06:26:22;;;;;;;38.37;14.67;;;4.10;99.90;;;;;;4946223;28;20059;-68
2022/01/19 06:28:48;;;;;;;47.37;14.40;;;4.10;99.90;;;;;;4949648;28;20466;-69
2022/01/19 06:31:13;;;;;;;39.63;15.13;;;4.10;99.90;;;;;;4927386;29;20130;-69
2022/01/19 06:33:39;;;;;;;39.27;13.00;;;4.10;99.90;;;;;;4915090;29;20051;-68
2022/01/19 06:36:04;;;;;;;35.70;15.83;;;4.10;99.90;;;;;;4939256;28;20027;-68
2022/01/19 06:38:30;;;;;;;36.73;15.40;;;4.10;99.90;;;;;;4941783;28;20106;-68
2022/01/19 06:40:56;;;;;;;46.63;15.33;;;4.20;99.90;;;;;;4945324;28;20043;-68
2022/01/19 06:43:21;;;;;;;38.53;14.27;;;4.10;99.90;;;;;;4942445;28;20046;-69
2022/01/19 06:45:47;;;;;;;38.43;14.13;;;4.20;99.90;;;;;;4945223;28;20035;-68
2022/01/19 06:48:12;;;;;;;42.27;16.00;;;4.20;99.90;;;;;;4927555;29;20163;-68
2022/01/19 06:50:38;;;;;;;40.97;15.57;;;4.20;99.90;;;;;;4940307;28;21198;-69
2022/01/19 06:53:04;;;;;;;38.50;14.83;;;4.20;99.90;;;;;;4944520;28;20039;-69
2022/01/19 06:55:29;;;;;;;38.70;15.63;;;4.20;99.90;;;;;;4942827;28;20050;-68
2022/01/19 06:57:55;;;;;;;45.03;16.63;;;4.20;99.90;;;;;;4910681;29;20043;-68
2022/01/19 07:00:21;;;;;;;36.00;15.37;;;4.20;99.90;;;;;;4926902;29;20043;-69
2022/01/19 07:02:47;;;;;;;40.87;16.30;;;4.20;99.90;;;;;;4916880;29;20047;-68
2022/01/19 07:05:12;;;;;;;44.80;16.53;;;4.20;99.90;;;;;;4929245;29;20303;-68
2022/01/19 07:07:38;;;;;;;44.10;16.50;;;4.20;99.90;;;;;;4921997;28;20399;-69
2022/01/19 07:10:06;;;;;;;41.63;16.63;;;4.30;99.90;;;;;;4944143;28;20043;-69
2022/01/19 07:12:31;;;;;;;45.63;16.83;;;4.30;99.90;;;;;;4928021;29;20050;-68
2022/01/19 07:14:57;;;;;;;42.50;16.47;;;4.30;99.90;;;;;;4943168;28;20111;-69
2022/01/19 07:17:23;;;;;;;47.63;16.00;;;4.30;99.90;;;;;;4943006;28;20488;-68
2022/01/19 07:19:48;;;;;;;49.17;16.90;;;4.30;99.90;;;;;;4921513;29;20180;-69
2022/01/19 07:22:15;;;;;;;44.23;16.73;;;4.20;99.90;;;;;;4951024;28;20051;-69
2022/01/19 07:24:42;;;;;;;37.55;15.82;;;4.30;99.90;;;;;;4944483;29;20039;-69
2022/01/19 07:27:07;;;;;;;39.55;16.05;;;4.30;99.90;;;;;;4922764;29;20081;-68
2022/01/19 07:29:33;;;;;;;38.73;15.77;;;4.30;99.90;;;;;;4924784;29;20440;-68
2022/01/19 07:31:59;;;;;;;44.07;17.77;;;4.30;99.90;;;;;;4943340;28;20031;-68
2022/01/19 07:34:25;;;;;;;49.38;16.63;;;4.30;99.90;;;;;;4911555;28;20039;-69
2022/01/19 07:36:55;;;;;;;41.83;17.27;;;4.30;99.90;;;;;;4940015;28;20059;-69
2022/01/19 07:39:22;;;;;;;44.38;15.65;;;4.30;99.90;;;;;;4940630;28;20789;-69
2022/01/19 07:41:48;;;;;;;43.33;18.38;;;4.30;99.90;;;;;;4943531;28;20452;-68
2022/01/19 07:44:14;;;;;;;49.72;17.42;;;4.30;99.90;;;;;;4939670;28;20035;-69
2022/01/19 07:46:40;;;;;;;40.03;16.25;;;4.30;99.90;;;;;;4938605;28;20035;-68
2022/01/19 07:49:06;;;;;;;40.30;16.92;;;4.30;99.90;;;;;;4922207;28;20039;-69
2022/01/19 07:51:31;;;;;;;46.10;18.20;;;4.30;99.90;;;;;;4924294;29;20047;-72
2022/01/19 07:53:57;;;;;;;43.03;17.13;;;4.40;99.90;;;;;;4925528;29;20503;-68
2022/01/19 07:56:23;;;;;;;43.47;17.53;;;4.40;99.90;;;;;;4942125;29;20134;-69
2022/01/19 07:58:49;;;;;;;37.43;17.23;;;4.40;99.90;;;;;;4918859;28;20059;-68
2022/01/19 08:01:14;;;;;;;41.30;17.17;;;4.40;99.90;;;;;;4940234;28;20046;-69
2022/01/19 08:03:40;;;;;;;41.17;17.63;;;4.40;99.90;;;;;;4936818;28;20304;-69
2022/01/19 08:06:06;;;;;;;44.33;17.47;;;4.40;99.90;;;;;;4938296;28;20039;-69
2022/01/19 08:08:32;;;;;;;44.55;15.75;;;4.50;99.90;;;;;;4945108;28;20086;-69
2022/01/19 08:10:58;;;;;;;48.33;19.23;;;4.50;99.90;;;;;;4941626;29;20508;-68
2022/01/19 08:13:24;;;;;;;47.20;17.50;;;4.50;99.90;;;;;;4926941;29;20042;-69
2022/01/19 08:15:49;;;;;;;43.38;17.55;;;4.50;99.90;;;;;;4916397;29;20043;-69
2022/01/19 08:18:15;;;;;;;50.27;17.90;;;4.50;99.90;;;;;;4931013;28;20493;-69
2022/01/19 08:20:43;;;;;;;51.73;18.77;;;4.50;99.90;;;;;;4939315;28;20051;-69
2022/01/19 08:23:09;;;;;;;55.25;19.52;;;4.50;99.90;;;;;;4922245;29;20035;-69
2022/01/19 08:25:35;;;;;;;48.05;17.88;;;4.50;99.90;;;;;;4921758;29;20051;-69
2022/01/19 08:28:01;;;;;;;40.87;18.07;;;4.50;99.90;;;;;;4936330;28;20406;-69
2022/01/19 08:30:26;;;;;;;46.93;19.50;;;4.50;99.90;;;;;;4940084;29;20508;-69
2022/01/19 08:32:52;;;;;;;47.50;17.83;;;4.60;99.90;;;;;;4936029;28;20505;-68
2022/01/19 08:35:18;;;;;;;39.53;16.70;;;4.60;99.90;;;;;;4934604;28;20300;-68
2022/01/19 08:37:43;;;;;;;45.78;16.65;;;4.60;99.90;;;;;;4920332;28;20079;-68
2022/01/19 08:40:10;;;;;;;39.93;18.93;;;4.60;99.90;;;;;;4926900;28;20089;-69
2022/01/19 08:42:36;;;;;;;53.08;20.80;;;4.60;99.90;;;;;;4922622;29;20059;-68
2022/01/19 08:45:07;;;;;;;49.47;18.77;;;4.70;99.90;;;;;;4924136;29;20042;-69
2022/01/19 08:50:47;;;;;;;43.22;19.73;;;4.70;99.90;;;;;;1458740;26;20109;-83
2022/01/19 08:53:30;;;;;;;49.45;18.17;;;4.70;99.90;;;;;;4926377;29;20060;-84
2022/01/19 08:59:14;;;;;;;49.38;19.70;;;4.90;99.90;;;;;;4932123;28;20047;-84
2022/01/19 09:02:10;;;;;;;42.97;18.20;;;4.80;99.90;;;;;;4928282;28;20636;-83
2022/01/19 09:04:43;;;;;;;47.60;19.55;;;4.80;99.90;;;;;;4931076;29;20051;-83
2022/01/19 09:07:12;;;;;;;52.53;18.95;;;4.90;99.90;;;;;;4949025;28;20043;-84
2022/01/19 09:10:41;;;;;;;;;;;;;;;;;;;;;
2022/01/19 09:17:07;;;;;;;45.40;19.70;;;4.80;99.90;;;;;;4943346;28;20629;-83
2022/01/19 09:19:39;;;;;;;42.97;19.35;;;4.90;99.90;;;;;;4956761;28;20055;-85
2022/01/19 09:22:17;;;;;;;46.20;18.85;;;4.80;99.90;;;;;;4934930;28;20440;-84
2022/01/19 09:25:08;;;;;;;45.88;20.00;;;4.90;99.90;;;;;;4926190;28;20653;-83
2022/01/19 09:27:44;;;;;;;39.38;18.95;;;4.90;99.90;;;;;;4928678;29;20059;-82
2022/01/19 09:30:50;;;;;;;48.45;19.80;;;4.80;99.90;;;;;;4952867;28;20391;-84
2022/01/19 09:33:29;;;;;;;48.78;19.80;;;4.90;99.90;;;;;;4936939;29;20050;-85
2022/01/19 09:36:52;;;;;;;53.95;20.25;;;4.90;99.90;;;;;;4956824;28;20051;-84
2022/01/19 09:39:31;;;;;;;49.47;20.15;;;4.90;99.90;;;;;;4931489;29;20134;-84
2022/01/19 09:42:15;;;;;;;53.45;21.08;;;4.90;99.90;;;;;;4912987;29;20047;-83
2022/01/19 09:44:52;;;;;;;52.75;21.83;;;4.80;99.90;;;;;;4952114;28;20122;-84
2022/01/19 09:56:18;;;;;;;47.75;19.73;;;4.90;99.90;;;;;;4901765;29;20079;-84
2022/01/19 09:59:30;;;;;;;48.50;20.42;;;5.00;99.90;;;;;;4891076;29;20118;-85
2022/01/19 10:02:41;;;;;;;56.85;23.02;;;4.90;99.90;;;;;;4894864;29;20052;-84
2022/01/19 10:09:29;;;;;;;61.72;21.85;;;5.00;99.90;;;;;;4932130;23;20051;-67
2022/01/19 10:17:15;;;;;;;61.85;22.80;;;5.00;99.90;;;;;;4931327;28;20058;-67
2022/01/19 10:19:45;;;;;;;50.07;20.83;;;5.00;99.90;;;;;;4938198;28;20051;-67
2022/01/19 10:22:20;;;;;;;55.35;22.92;;;5.00;99.90;;;;;;4941393;28;20349;-67
2022/01/19 10:24:50;;;;;;;54.00;21.83;;;5.00;99.90;;;;;;4943545;28;21969;-67
2022/01/19 10:27:28;;;;;;;53.20;20.75;;;5.00;99.90;;;;;;4924475;29;20334;-67
2022/01/19 10:30:02;;;;;;;54.90;21.88;;;5.00;99.90;;;;;;4930053;28;20054;-67
2022/01/19 10:32:41;;;;;;;53.78;21.33;;;5.00;99.90;;;;;;4945961;28;20031;-67
2022/01/19 10:35:29;;;;;;;54.72;22.45;;;5.00;99.90;;;;;;4941090;28;20391;-67
2022/01/19 10:38:16;;;;;;;59.38;23.05;;;5.10;99.90;;;;;;4951932;28;20047;-67
2022/01/19 10:41:02;;;;;;;63.53;22.75;;;5.10;99.90;;;;;;4940299;28;20121;-67
2022/01/19 10:43:35;;;;;;;58.60;23.73;;;5.10;99.90;;;;;;4939529;28;20110;-77
2022/01/19 10:46:21;;;;;;;53.97;23.67;;;5.10;99.90;;;;;;4946974;28;20059;-67
2022/01/19 10:48:46;;;;;;;60.03;21.40;;;5.10;99.90;;;;;;4942287;28;20054;-68
2022/01/19 10:51:22;;;;;;;49.50;22.20;;;5.10;99.90;;;;;;4946264;28;20043;-76
2022/01/19 10:54:26;;;;;;;50.10;21.63;;;5.10;99.90;;;;;;4947902;28;20039;-75
2022/01/19 10:56:58;;;;;;;59.35;24.30;;;5.10;99.90;;;;;;4942154;28;20165;-70
2022/01/19 10:59:31;;;;;;;55.42;23.50;;;5.20;99.90;;;;;;4936772;28;20145;-70
2022/01/19 11:02:01;;;;;;;59.05;23.35;;;5.20;99.90;;;;;;4940008;28;20180;-76
2022/01/19 11:04:29;;;;;;;52.67;21.42;;;5.20;99.90;;;;;;4940854;28;20106;-67
2022/01/19 11:07:03;;;;;;;61.97;24.02;;;5.30;99.90;;;;;;4937697;28;20082;-68
2022/01/19 11:09:30;;;;;;;57.45;23.33;;;5.30;99.90;;;;;;4941235;28;20125;-67
2022/01/19 11:12:10;;;;;;;54.20;23.58;;;5.40;99.90;;;;;;4941414;28;20093;-67
2022/01/19 11:14:36;;;;;;;53.92;23.65;;;5.40;99.90;;;;;;4937704;28;20054;-67
2022/01/19 11:17:03;;;;;;;60.37;24.90;;;5.50;99.90;;;;;;4940301;28;20035;-67
2022/01/19 11:19:29;;;;;;;58.53;23.73;;;5.50;99.90;;;;;;4935140;28;20507;-68
2022/01/19 11:22:34;;;;;;;49.03;22.95;;;5.60;99.90;;;;;;4936557;28;20043;-67
2022/01/19 11:25:23;;;;;;;52.78;21.75;;;5.70;99.90;;;;;;4942962;28;20063;-67
2022/01/19 11:27:49;;;;;;;55.05;22.30;;;5.80;99.90;;;;;;4934907;28;20118;-67
2022/01/19 11:30:19;;;;;;;;;;;5.90;99.90;;;;;;4932107;28;20110;-68
2022/01/19 11:33:14;;;;;;;46.78;19.77;;;6.00;99.90;;;;;;4938747;28;20349;-67
2022/01/19 11:35:42;;;;;;;53.17;22.02;;;6.00;99.90;;;;;;4941951;28;20071;-66
2022/01/19 11:38:33;;;;;;;45.67;19.80;;;6.10;99.90;;;;;;4928386;28;20043;-66
2022/01/19 11:41:02;;;;;;;52.72;20.90;;;6.20;99.90;;;;;;4942175;28;20051;-67
2022/01/19 11:43:30;;;;;;;46.30;20.80;;;6.30;99.90;;;;;;4937683;28;20050;-66
2022/01/19 11:45:57;;;;;;;48.05;19.05;;;6.30;99.90;;;;;;4945183;28;20498;-66
2022/01/19 11:48:26;;;;;;;42.67;21.27;;;6.30;99.90;;;;;;4937352;28;20066;-69
2022/01/19 11:50:53;;;;;;;47.90;20.88;;;6.30;99.90;;;;;;4944823;28;20385;-66
2022/01/19 11:53:19;;;;;;;51.83;20.92;;;6.30;99.90;;;;;;4946186;28;20042;-66
2022/01/19 11:56:08;;;;;;;42.60;20.92;;;6.30;99.90;;;;;;4937194;28;20095;-66
2022/01/19 11:58:34;;;;;;;53.95;21.98;;;6.30;99.90;;;;;;4941777;28;20369;-66
2022/01/19 12:01:00;;;;;;;52.47;20.15;;;6.30;99.90;;;;;;4947119;28;20735;-67
2022/01/19 12:03:31;;;;;;;47.13;21.70;;;6.30;99.90;;;;;;4944488;28;21078;-67
2022/01/19 12:05:58;;;;;;;49.65;20.33;;;6.30;99.90;;;;;;4932327;28;20745;-66
2022/01/19 12:08:23;;;;;;;44.53;20.52;;;6.30;99.90;;;;;;4937059;28;20039;-67
2022/01/19 12:10:51;;;;;;;50.97;20.93;;;6.30;99.90;;;;;;4938851;28;20043;-67
2022/01/19 12:16:25;;;;;;;44.72;18.10;;;6.20;99.90;;;;;;4945397;28;20105;-67
2022/01/19 12:18:58;;;;;;;44.90;19.45;;;6.20;99.90;;;;;;4938264;28;20070;-67
2022/01/19 12:21:32;;;;;;;48.40;18.90;;;6.20;99.90;;;;;;4942978;28;20051;-68
2022/01/19 12:24:13;;;;;;;45.35;19.05;;;6.20;99.90;;;;;;4944419;28;20509;-67
2022/01/19 12:27:04;;;;;;;39.72;17.17;;;6.20;99.90;;;;;;4939358;28;20508;-67
2022/01/19 12:29:33;;;;;;;43.42;17.17;;;6.20;99.90;;;;;;4935247;28;20467;-67
2022/01/19 12:32:03;;;;;;;50.78;17.98;;;6.20;99.90;;;;;;4944879;28;20427;-66
2022/01/19 12:34:50;;;;;;;39.03;17.58;;;6.20;99.90;;;;;;4938172;28;20047;-66
2022/01/19 12:37:24;;;;;;;37.88;17.35;;;6.10;99.90;;;;;;4937332;28;20069;-66
2022/01/19 12:39:50;;;;;;;44.40;17.48;;;6.20;99.90;;;;;;4932043;28;20407;-67
2022/01/19 12:42:27;;;;;;;41.08;17.25;;;6.20;99.90;;;;;;4935823;28;20039;-66
2022/01/19 12:44:57;;;;;;;40.00;16.55;;;6.20;99.90;;;;;;4942026;28;20047;-67
2022/01/19 12:49:57;;;;;;;45.58;17.60;;;6.20;99.90;;;;;;4928650;28;20169;-67
2022/01/19 12:52:28;;;;;;;36.30;16.02;;;6.30;99.90;;;;;;4940519;28;20059;-67
2022/01/19 12:54:55;;;;;;;42.00;16.40;;;6.30;99.90;;;;;;4938673;28;20047;-67
2022/01/19 12:57:22;;;;;;;35.38;15.38;;;6.30;99.90;;;;;;4940050;28;20401;-67
2022/01/19 12:59:49;;;;;;;40.15;15.73;;;6.30;99.90;;;;;;4939342;28;20046;-67
2022/01/19 13:02:17;;;;;;;36.30;14.75;;;6.30;99.90;;;;;;4934540;28;20126;-67
2022/01/19 13:04:46;;;;;;;37.40;13.82;;;6.30;99.90;;;;;;4932390;28;20040;-67
2022/01/19 13:07:25;;;;;;;38.33;15.05;;;6.30;99.90;;;;;;4939724;28;20035;-67
2022/01/19 13:10:24;;;;;;;34.47;14.88;;;6.30;99.90;;;;;;4938174;28;20063;-67
2022/01/19 13:15:42;;;;;;;37.88;15.65;;;6.20;99.90;;;;;;4938426;28;20129;-67
2022/01/19 13:18:08;;;;;;;30.75;13.93;;;6.30;99.90;;;;;;4943292;28;20112;-68
2022/01/19 13:20:34;;;;;;;;;;;6.30;99.90;;;;;;4939315;28;20047;-66
2022/01/19 13:22:59;;;;;;;32.45;12.82;;;6.30;99.90;;;;;;4943471;28;20538;-70
2022/01/19 13:25:28;;;;;;;34.57;13.63;;;6.20;99.90;;;;;;4939383;28;20058;-68
2022/01/19 13:27:56;;;;;;;31.90;13.88;;;6.20;99.90;;;;;;4935551;28;20043;-68
2022/01/19 13:30:31;;;;;;;27.83;12.13;;;6.20;99.90;;;;;;4938923;28;20039;-68
2022/01/19 13:32:57;;;;;;;28.02;12.93;;;6.20;99.90;;;;;;4945452;28;20051;-67
2022/01/19 13:35:25;;;;;;;28.73;11.98;;;6.20;99.90;;;;;;4943852;28;20594;-67
2022/01/19 13:37:58;;;;;;;34.72;12.35;;;6.20;99.90;;;;;;4940733;28;20043;-67
2022/01/19 13:40:31;;;;;;;34.38;12.20;;;6.20;99.90;;;;;;4945904;28;20211;-68
2022/01/19 13:43:00;;;;;;;27.98;12.48;;;6.20;99.90;;;;;;4941376;28;20050;-67
2022/01/19 13:50:54;;;;;;;30.58;12.23;;;6.10;99.90;;;;;;4942271;28;20391;-67
2022/01/19 13:53:39;;;;;;;29.17;11.85;;;6.10;99.90;;;;;;4942307;28;20531;-68
2022/01/19 13:56:11;;;;;;;35.15;12.20;;;6.10;99.90;;;;;;4941344;28;20127;-67
2022/01/19 13:58:42;;;;;;;32.42;11.98;;;6.00;99.90;;;;;;4939272;28;20431;-68
2022/01/19 14:01:14;;;;;;;35.17;11.30;;;6.00;99.90;;;;;;4931125;28;20052;-67
2022/01/19 14:03:55;;;;;;;27.33;12.15;;;6.00;99.90;;;;;;4941628;28;20070;-68
2022/01/19 14:06:40;;;;;;;29.83;12.55;;;6.00;99.90;;;;;;4940055;28;20047;-68
2022/01/19 14:09:17;;;;;;;27.17;11.40;;;5.90;99.90;;;;;;4938103;28;20078;-67
2022/01/19 14:11:49;;;;;;;34.67;12.63;;;5.90;99.90;;;;;;4939344;28;20103;-68
2022/01/19 14:14:26;;;;;;;31.40;12.00;;;5.90;99.90;;;;;;4938037;28;20039;-67
2022/01/19 14:16:55;;;;;;;32.38;10.45;;;5.90;99.90;;;;;;4942852;28;20612;-67
2022/01/19 14:19:27;;;;;;;29.25;11.25;;;5.90;99.90;;;;;;4939185;28;20027;-68
2022/01/19 14:22:21;;;;;;;31.77;11.73;;;5.80;99.90;;;;;;4936166;28;20043;-67
2022/01/19 14:24:47;;;;;;;31.80;11.55;;;5.80;99.90;;;;;;4941372;28;20051;-67
2022/01/19 14:27:17;;;;;;;27.33;11.80;;;5.80;99.90;;;;;;4926807;28;20126;-67
2022/01/19 14:30:03;;;;;;;29.30;11.57;;;5.80;99.90;;;;;;4942773;28;20050;-67
2022/01/19 14:33:09;;;;;;;28.77;11.38;;;5.80;99.90;;;;;;4939273;28;20044;-67
2022/01/19 14:35:46;;;;;;;31.23;12.13;;;5.80;99.90;;;;;;4936841;28;20043;-67
2022/01/19 14:38:30;;;;;;;28.48;9.15;;;5.80;99.90;;;;;;4943079;28;20415;-67
2022/01/19 14:41:01;;;;;;;29.25;9.63;;;5.80;99.90;;;;;;4939048;28;20058;-67
2022/01/19 14:43:44;;;;;;;21.90;8.10;;;5.80;99.90;;;;;;4944520;28;20070;-68
2022/01/19 14:46:13;;;;;;;16.95;6.80;;;5.80;99.90;;;;;;4943476;28;20911;-68
2022/01/19 14:48:45;;;;;;;15.95;6.80;;;5.90;99.90;;;;;;4955531;23;20413;-71
2022/01/19 14:51:25;;;;;;;13.65;6.13;;;5.90;99.90;;;;;;4968401;28;20585;-71
2022/01/19 14:53:54;;;;;;;20.48;5.68;;;5.90;99.90;;;;;;4982434;28;20154;-71
2022/01/19 14:56:20;;;;;;;14.38;5.22;;;5.90;99.90;;;;;;4975768;28;20125;-70
2022/01/19 14:58:45;;;;;;;17.30;5.75;;;6.00;99.90;;;;;;4963179;28;20039;-71
2022/01/19 15:01:11;;;;;;;15.60;6.03;;;6.10;99.90;;;;;;4966444;28;20050;-71
2022/01/19 15:03:37;;;;;;;18.77;6.03;;;6.10;99.90;;;;;;4969353;28;20108;-71